sensor_id;sensor_type;location;lat;lon;timestamp;temperature;humidity
37285;DHT22;23172;53.550;9.964;2022-12-10T00:00:18;2.40;99.30
37285;DHT22;23172;53.550;9.964;2022-12-10T00:05:19;2.40;99.30
37285;DHT22;23172;53.550;9.964;2022-12-10T00:10:21;2.40;99.30
37285;DHT22;23172;53.550;9.964;2022-12-10T00:15:24;2.40;99.20
37285;DHT22;23172;53.550;9.964;2022-12-10T00:20:26;2.30;99.30
37285;DHT22;23172;53.550;9.964;2022-12-10T00:25:27;2.20;99.50
37285;DHT22;23172;53.550;9.964;2022-12-10T00:30:30;2.20;99.50
37285;DHT22;23172;53.550;9.964;2022-12-10T00:35:34;2.20;99.50
37285;DHT22;23172;53.550;9.964;2022-12-10T00:40:37;2.20;99.20
37285;DHT22;23172;53.550;9.964;2022-12-10T00:45:40;2.20;99.30
37285;DHT22;23172;53.550;9.964;2022-12-10T00:50:41;2.20;99.30
37285;DHT22;23172;53.550;9.964;2022-12-10T00:55:43;2.20;99.40
37285;DHT22;23172;53.550;9.964;2022-12-10T01:00:46;2.10;99.30
37285;DHT22;23172;53.550;9.964;2022-12-10T01:05:48;2.10;99.30
37285;DHT22;23172;53.550;9.964;2022-12-10T01:10:52;2.10;99.30
37285;DHT22;23172;53.550;9.964;2022-12-10T01:15:55;2.10;99.30
37285;DHT22;23172;53.550;9.964;2022-12-10T01:20:59;2.00;99.30
37285;DHT22;23172;53.550;9.964;2022-12-10T01:26:02;2.00;99.30
37285;DHT22;23172;53.550;9.964;2022-12-10T01:31:06;2.00;99.50
37285;DHT22;23172;53.550;9.964;2022-12-10T01:36:10;2.00;99.30
37285;DHT22;23172;53.550;9.964;2022-12-10T01:41:12;2.10;99.40
37285;DHT22;23172;53.550;9.964;2022-12-10T01:46:16;2.10;99.40
37285;DHT22;23172;53.550;9.964;2022-12-10T01:51:18;2.20;99.30
37285;DHT22;23172;53.550;9.964;2022-12-10T01:56:20;2.10;98.90
37285;DHT22;23172;53.550;9.964;2022-12-10T02:01:26;2.10;98.80
37285;DHT22;23172;53.550;9.964;2022-12-10T02:06:31;2.10;99.00
37285;DHT22;23172;53.550;9.964;2022-12-10T02:11:37;2.10;99.10
37285;DHT22;23172;53.550;9.964;2022-12-10T02:16:44;2.10;99.00
37285;DHT22;23172;53.550;9.964;2022-12-10T02:21:48;2.10;99.00
37285;DHT22;23172;53.550;9.964;2022-12-10T02:26:52;2.10;99.00
37285;DHT22;23172;53.550;9.964;2022-12-10T02:31:59;2.10;98.90
37285;DHT22;23172;53.550;9.964;2022-12-10T02:37:02;2.10;98.90
37285;DHT22;23172;53.550;9.964;2022-12-10T02:42:05;2.10;98.90
37285;DHT22;23172;53.550;9.964;2022-12-10T02:47:09;2.10;98.90
37285;DHT22;23172;53.550;9.964;2022-12-10T02:52:13;2.10;99.10
37285;DHT22;23172;53.550;9.964;2022-12-10T02:57:18;2.10;99.00
37285;DHT22;23172;53.550;9.964;2022-12-10T03:02:26;2.10;98.80
37285;DHT22;23172;53.550;9.964;2022-12-10T03:07:32;2.10;98.80
37285;DHT22;23172;53.550;9.964;2022-12-10T03:12:35;2.10;98.70
37285;DHT22;23172;53.550;9.964;2022-12-10T03:17:40;2.10;98.80
37285;DHT22;23172;53.550;9.964;2022-12-10T03:22:44;2.00;98.70
37285;DHT22;23172;53.550;9.964;2022-12-10T03:27:47;1.90;98.70
37285;DHT22;23172;53.550;9.964;2022-12-10T03:32:52;1.90;98.70
37285;DHT22;23172;53.550;9.964;2022-12-10T03:37:54;2.00;98.70
37285;DHT22;23172;53.550;9.964;2022-12-10T03:42:56;2.10;98.20
37285;DHT22;23172;53.550;9.964;2022-12-10T03:47:59;2.10;98.30
37285;DHT22;23172;53.550;9.964;2022-12-10T03:53:01;2.20;98.00
37285;DHT22;23172;53.550;9.964;2022-12-10T03:58:02;2.20;97.60
37285;DHT22;23172;53.550;9.964;2022-12-10T04:03:05;2.20;97.60
37285;DHT22;23172;53.550;9.964;2022-12-10T04:08:07;2.20;97.50
37285;DHT22;23172;53.550;9.964;2022-12-10T04:13:09;2.20;97.50
37285;DHT22;23172;53.550;9.964;2022-12-10T04:18:29;2.30;97.40
37285;DHT22;23172;53.550;9.964;2022-12-10T04:23:31;2.20;97.40
37285;DHT22;23172;53.550;9.964;2022-12-10T04:29:01;2.20;97.40
37285;DHT22;23172;53.550;9.964;2022-12-10T04:34:04;2.30;97.30
37285;DHT22;23172;53.550;9.964;2022-12-10T04:39:06;2.30;97.20
37285;DHT22;23172;53.550;9.964;2022-12-10T04:44:08;2.30;97.10
37285;DHT22;23172;53.550;9.964;2022-12-10T04:49:11;2.30;97.00
37285;DHT22;23172;53.550;9.964;2022-12-10T04:54:13;2.30;97.00
37285;DHT22;23172;53.550;9.964;2022-12-10T04:59:15;2.30;96.90
37285;DHT22;23172;53.550;9.964;2022-12-10T05:04:18;2.30;96.90
37285;DHT22;23172;53.550;9.964;2022-12-10T05:09:20;2.30;96.80
37285;DHT22;23172;53.550;9.964;2022-12-10T05:14:23;2.20;96.60
37285;DHT22;23172;53.550;9.964;2022-12-10T05:19:26;2.10;96.60
37285;DHT22;23172;53.550;9.964;2022-12-10T05:24:28;2.10;96.80
37285;DHT22;23172;53.550;9.964;2022-12-10T05:29:29;2.20;96.70
37285;DHT22;23172;53.550;9.964;2022-12-10T05:34:32;2.20;96.70
37285;DHT22;23172;53.550;9.964;2022-12-10T05:39:34;2.20;96.60
37285;DHT22;23172;53.550;9.964;2022-12-10T05:44:36;2.10;96.60
37285;DHT22;23172;53.550;9.964;2022-12-10T05:49:39;2.20;96.50
37285;DHT22;23172;53.550;9.964;2022-12-10T05:54:40;2.20;96.40
37285;DHT22;23172;53.550;9.964;2022-12-10T05:59:42;2.20;96.20
37285;DHT22;23172;53.550;9.964;2022-12-10T06:04:45;2.20;96.20
37285;DHT22;23172;53.550;9.964;2022-12-10T06:09:47;2.30;96.30
37285;DHT22;23172;53.550;9.964;2022-12-10T06:14:49;2.30;96.20
37285;DHT22;23172;53.550;9.964;2022-12-10T06:19:51;2.20;96.20
37285;DHT22;23172;53.550;9.964;2022-12-10T06:24:53;2.20;96.20
37285;DHT22;23172;53.550;9.964;2022-12-10T06:29:55;2.20;96.20
37285;DHT22;23172;53.550;9.964;2022-12-10T06:34:58;2.10;96.30
37285;DHT22;23172;53.550;9.964;2022-12-10T06:39:59;2.10;96.30
37285;DHT22;23172;53.550;9.964;2022-12-10T06:45:04;2.10;96.30
37285;DHT22;23172;53.550;9.964;2022-12-10T06:50:08;2.10;96.30
37285;DHT22;23172;53.550;9.964;2022-12-10T06:55:09;2.10;96.30
37285;DHT22;23172;53.550;9.964;2022-12-10T07:00:12;2.10;96.10
37285;DHT22;23172;53.550;9.964;2022-12-10T07:05:15;2.10;95.90
37285;DHT22;23172;53.550;9.964;2022-12-10T07:15:19;2.00;96.20
37285;DHT22;23172;53.550;9.964;2022-12-10T07:20:22;2.00;96.10
37285;DHT22;23172;53.550;9.964;2022-12-10T07:25:23;2.00;96.10
37285;DHT22;23172;53.550;9.964;2022-12-10T07:30:25;2.00;96.20
37285;DHT22;23172;53.550;9.964;2022-12-10T07:35:28;1.90;95.80
37285;DHT22;23172;53.550;9.964;2022-12-10T07:40:29;1.90;96.00
37285;DHT22;23172;53.550;9.964;2022-12-10T07:45:32;1.90;96.00
37285;DHT22;23172;53.550;9.964;2022-12-10T07:50:35;1.80;96.00
37285;DHT22;23172;53.550;9.964;2022-12-10T07:55:37;1.80;96.00
37285;DHT22;23172;53.550;9.964;2022-12-10T08:00:39;1.90;95.80
37285;DHT22;23172;53.550;9.964;2022-12-10T08:05:42;1.90;95.90
37285;DHT22;23172;53.550;9.964;2022-12-10T08:10:44;1.90;95.70
37285;DHT22;23172;53.550;9.964;2022-12-10T08:15:45;2.00;95.70
37285;DHT22;23172;53.550;9.964;2022-12-10T08:20:49;2.00;95.70
37285;DHT22;23172;53.550;9.964;2022-12-10T08:25:50;1.90;95.60
37285;DHT22;23172;53.550;9.964;2022-12-10T08:30:52;1.90;95.40
37285;DHT22;23172;53.550;9.964;2022-12-10T08:35:57;1.90;95.50
37285;DHT22;23172;53.550;9.964;2022-12-10T08:41:04;1.90;95.50
37285;DHT22;23172;53.550;9.964;2022-12-10T08:46:06;1.80;95.80
37285;DHT22;23172;53.550;9.964;2022-12-10T08:51:10;1.80;96.00
37285;DHT22;23172;53.550;9.964;2022-12-10T08:56:12;1.80;96.00
37285;DHT22;23172;53.550;9.964;2022-12-10T09:01:15;1.80;96.70
37285;DHT22;23172;53.550;9.964;2022-12-10T09:06:19;1.70;96.40
37285;DHT22;23172;53.550;9.964;2022-12-10T09:11:22;1.70;96.60
37285;DHT22;23172;53.550;9.964;2022-12-10T09:16:27;1.70;96.80
37285;DHT22;23172;53.550;9.964;2022-12-10T09:21:30;1.70;96.80
37285;DHT22;23172;53.550;9.964;2022-12-10T09:26:32;1.60;97.50
37285;DHT22;23172;53.550;9.964;2022-12-10T09:31:34;1.50;97.20
37285;DHT22;23172;53.550;9.964;2022-12-10T09:36:37;1.60;97.50
37285;DHT22;23172;53.550;9.964;2022-12-10T09:41:42;1.60;97.40
37285;DHT22;23172;53.550;9.964;2022-12-10T09:46:51;1.60;97.30
37285;DHT22;23172;53.550;9.964;2022-12-10T09:51:55;1.70;97.10
37285;DHT22;23172;53.550;9.964;2022-12-10T09:56:58;1.70;96.80
37285;DHT22;23172;53.550;9.964;2022-12-10T10:02:03;1.70;96.60
37285;DHT22;23172;53.550;9.964;2022-12-10T10:07:07;1.70;96.70
37285;DHT22;23172;53.550;9.964;2022-12-10T10:12:13;1.70;97.00
37285;DHT22;23172;53.550;9.964;2022-12-10T10:17:16;1.70;97.00
37285;DHT22;23172;53.550;9.964;2022-12-10T10:22:21;1.70;96.80
37285;DHT22;23172;53.550;9.964;2022-12-10T10:27:24;1.80;96.40
37285;DHT22;23172;53.550;9.964;2022-12-10T10:37:30;1.80;96.10
37285;DHT22;23172;53.550;9.964;2022-12-10T10:42:34;1.70;95.50
37285;DHT22;23172;53.550;9.964;2022-12-10T10:47:37;1.60;95.70
37285;DHT22;23172;53.550;9.964;2022-12-10T10:52:40;1.70;96.00
37285;DHT22;23172;53.550;9.964;2022-12-10T10:57:42;1.90;95.90
37285;DHT22;23172;53.550;9.964;2022-12-10T11:02:44;1.90;95.60
37285;DHT22;23172;53.550;9.964;2022-12-10T11:07:47;1.80;95.50
37285;DHT22;23172;53.550;9.964;2022-12-10T11:12:53;1.80;95.50
37285;DHT22;23172;53.550;9.964;2022-12-10T11:17:55;1.80;95.50
37285;DHT22;23172;53.550;9.964;2022-12-10T11:22:59;1.90;95.60
37285;DHT22;23172;53.550;9.964;2022-12-10T11:28:01;1.80;95.00
37285;DHT22;23172;53.550;9.964;2022-12-10T11:33:13;1.80;95.00
37285;DHT22;23172;53.550;9.964;2022-12-10T11:38:21;1.80;95.00
37285;DHT22;23172;53.550;9.964;2022-12-10T11:48:42;1.80;95.00
37285;DHT22;23172;53.550;9.964;2022-12-10T11:53:52;1.80;94.80
37285;DHT22;23172;53.550;9.964;2022-12-10T11:59:04;1.80;94.60
37285;DHT22;23172;53.550;9.964;2022-12-10T12:04:13;1.80;94.50
37285;DHT22;23172;53.550;9.964;2022-12-10T12:09:21;1.70;94.90
37285;DHT22;23172;53.550;9.964;2022-12-10T12:14:28;1.80;94.90
37285;DHT22;23172;53.550;9.964;2022-12-10T12:19:32;1.80;95.10
37285;DHT22;23172;53.550;9.964;2022-12-10T12:24:37;1.80;94.80
37285;DHT22;23172;53.550;9.964;2022-12-10T12:29:41;1.80;95.20
37285;DHT22;23172;53.550;9.964;2022-12-10T12:34:44;1.80;95.20
37285;DHT22;23172;53.550;9.964;2022-12-10T12:39:50;1.80;95.20
37285;DHT22;23172;53.550;9.964;2022-12-10T12:44:56;1.80;96.00
37285;DHT22;23172;53.550;9.964;2022-12-10T12:49:59;1.80;96.50
37285;DHT22;23172;53.550;9.964;2022-12-10T12:55:05;1.80;96.30
37285;DHT22;23172;53.550;9.964;2022-12-10T13:00:14;1.80;96.10
37285;DHT22;23172;53.550;9.964;2022-12-10T13:05:20;1.80;96.10
37285;DHT22;23172;53.550;9.964;2022-12-10T13:10:25;1.80;96.30
37285;DHT22;23172;53.550;9.964;2022-12-10T13:20:30;1.70;96.60
37285;DHT22;23172;53.550;9.964;2022-12-10T13:40:41;1.70;96.20
37285;DHT22;23172;53.550;9.964;2022-12-10T13:46:22;1.80;95.10
37285;DHT22;23172;53.550;9.964;2022-12-10T13:51:39;1.80;95.30
37285;DHT22;23172;53.550;9.964;2022-12-10T13:56:47;1.70;95.30
37285;DHT22;23172;53.550;9.964;2022-12-10T14:47:14;1.80;95.40
37285;DHT22;23172;53.550;9.964;2022-12-10T14:52:17;1.90;94.40
37285;DHT22;23172;53.550;9.964;2022-12-10T14:57:20;1.80;93.80
37285;DHT22;23172;53.550;9.964;2022-12-10T15:02:26;1.80;94.10
37285;DHT22;23172;53.550;9.964;2022-12-10T15:07:30;1.80;94.00
37285;DHT22;23172;53.550;9.964;2022-12-10T15:12:36;1.80;94.30
37285;DHT22;23172;53.550;9.964;2022-12-10T15:17:52;1.80;94.00
37285;DHT22;23172;53.550;9.964;2022-12-10T15:22:55;1.80;93.80
37285;DHT22;23172;53.550;9.964;2022-12-10T15:28:20;1.80;93.90
37285;DHT22;23172;53.550;9.964;2022-12-10T15:33:27;1.80;94.00
37285;DHT22;23172;53.550;9.964;2022-12-10T15:38:30;1.80;93.90
37285;DHT22;23172;53.550;9.964;2022-12-10T15:43:32;1.80;93.90
37285;DHT22;23172;53.550;9.964;2022-12-10T15:48:35;1.80;93.70
37285;DHT22;23172;53.550;9.964;2022-12-10T15:53:37;1.80;93.90
37285;DHT22;23172;53.550;9.964;2022-12-10T15:58:39;1.80;94.10
37285;DHT22;23172;53.550;9.964;2022-12-10T16:03:43;1.80;94.00
37285;DHT22;23172;53.550;9.964;2022-12-10T16:08:45;1.80;93.90
37285;DHT22;23172;53.550;9.964;2022-12-10T16:13:48;1.80;94.00
37285;DHT22;23172;53.550;9.964;2022-12-10T16:18:52;1.80;94.20
37285;DHT22;23172;53.550;9.964;2022-12-10T16:23:53;1.80;94.10
37285;DHT22;23172;53.550;9.964;2022-12-10T16:28:55;1.80;94.00
37285;DHT22;23172;53.550;9.964;2022-12-10T16:33:58;1.90;94.00
37285;DHT22;23172;53.550;9.964;2022-12-10T16:39:00;1.90;94.00
37285;DHT22;23172;53.550;9.964;2022-12-10T16:44:02;1.80;94.40
37285;DHT22;23172;53.550;9.964;2022-12-10T16:49:05;1.90;94.60
37285;DHT22;23172;53.550;9.964;2022-12-10T16:54:08;1.90;94.70
37285;DHT22;23172;53.550;9.964;2022-12-10T16:59:09;1.80;94.70
37285;DHT22;23172;53.550;9.964;2022-12-10T17:04:12;1.80;94.80
37285;DHT22;23172;53.550;9.964;2022-12-10T17:09:14;1.70;94.90
37285;DHT22;23172;53.550;9.964;2022-12-10T17:14:20;1.70;95.10
37285;DHT22;23172;53.550;9.964;2022-12-10T17:19:23;1.70;95.20
37285;DHT22;23172;53.550;9.964;2022-12-10T17:24:25;1.70;95.30
37285;DHT22;23172;53.550;9.964;2022-12-10T17:29:28;1.70;95.20
37285;DHT22;23172;53.550;9.964;2022-12-10T17:34:31;1.60;95.10
37285;DHT22;23172;53.550;9.964;2022-12-10T17:39:33;1.60;95.20
37285;DHT22;23172;53.550;9.964;2022-12-10T17:44:35;1.70;95.10
37285;DHT22;23172;53.550;9.964;2022-12-10T17:49:38;1.70;95.00
37285;DHT22;23172;53.550;9.964;2022-12-10T17:54:39;1.70;95.10
37285;DHT22;23172;53.550;9.964;2022-12-10T17:59:41;1.70;94.80
37285;DHT22;23172;53.550;9.964;2022-12-10T18:04:45;1.60;94.70
37285;DHT22;23172;53.550;9.964;2022-12-10T18:09:47;1.60;94.70
37285;DHT22;23172;53.550;9.964;2022-12-10T18:14:49;1.50;94.90
37285;DHT22;23172;53.550;9.964;2022-12-10T18:19:52;1.60;95.00
37285;DHT22;23172;53.550;9.964;2022-12-10T18:24:53;1.60;94.80
37285;DHT22;23172;53.550;9.964;2022-12-10T18:29:55;1.60;94.70
37285;DHT22;23172;53.550;9.964;2022-12-10T20:00:31;1.60;94.60
37285;DHT22;23172;53.550;9.964;2022-12-10T20:05:33;1.50;93.10
37285;DHT22;23172;53.550;9.964;2022-12-10T20:10:35;1.50;93.10
37285;DHT22;23172;53.550;9.964;2022-12-10T20:15:38;1.50;93.10
37285;DHT22;23172;53.550;9.964;2022-12-10T20:20:40;1.50;93.00
37285;DHT22;23172;53.550;9.964;2022-12-10T20:25:42;1.50;92.70
37285;DHT22;23172;53.550;9.964;2022-12-10T20:30:45;1.50;93.10
37285;DHT22;23172;53.550;9.964;2022-12-10T20:35:47;1.50;92.70
37285;DHT22;23172;53.550;9.964;2022-12-10T20:40:49;1.50;92.80
37285;DHT22;23172;53.550;9.964;2022-12-10T20:45:52;1.40;92.80
37285;DHT22;23172;53.550;9.964;2022-12-10T20:50:53;1.40;92.50
37285;DHT22;23172;53.550;9.964;2022-12-10T20:55:55;1.50;92.80
37285;DHT22;23172;53.550;9.964;2022-12-10T21:00:58;1.50;92.60
37285;DHT22;23172;53.550;9.964;2022-12-10T21:06:00;1.50;92.60
37285;DHT22;23172;53.550;9.964;2022-12-10T21:11:02;1.50;92.70
37285;DHT22;23172;53.550;9.964;2022-12-10T21:16:05;1.40;92.60
37285;DHT22;23172;53.550;9.964;2022-12-10T21:21:07;1.40;92.50
37285;DHT22;23172;53.550;9.964;2022-12-10T21:26:12;1.40;92.60
37285;DHT22;23172;53.550;9.964;2022-12-10T21:31:16;1.40;92.70
37285;DHT22;23172;53.550;9.964;2022-12-10T21:36:19;1.40;92.80
37285;DHT22;23172;53.550;9.964;2022-12-10T21:41:22;1.40;92.80
37285;DHT22;23172;53.550;9.964;2022-12-10T21:46:43;1.40;92.90
37285;DHT22;23172;53.550;9.964;2022-12-10T21:51:45;1.40;93.00
37285;DHT22;23172;53.550;9.964;2022-12-10T21:56:46;1.40;92.90
37285;DHT22;23172;53.550;9.964;2022-12-10T22:01:49;1.40;92.90
37285;DHT22;23172;53.550;9.964;2022-12-10T22:06:52;1.40;92.80
37285;DHT22;23172;53.550;9.964;2022-12-10T22:11:53;1.40;92.90
37285;DHT22;23172;53.550;9.964;2022-12-10T23:37:46;1.40;92.90
37285;DHT22;23172;53.550;9.964;2022-12-10T23:42:49;1.20;92.30
37285;DHT22;23172;53.550;9.964;2022-12-10T23:47:51;1.20;92.20
37285;DHT22;23172;53.550;9.964;2022-12-10T23:52:54;1.20;92.20
37285;DHT22;23172;53.550;9.964;2022-12-10T23:57:56;1.10;92.20
